Henderson, CO (80640)

1:04 PM MDT on August 27, 2016 (GMT -0600)
Werner Ent. Denver | | Change Station

Elev 5109 ft 39.86 °N, 104.91 °W | Updated 8 seconds ago

Mostly Cloudy
Mostly Cloudy
83.1 °F
Feels Like 81 °F
N
5.0
Wind Variable Wind from ENE
Gusts 12.0 mph

Today
High -- | Low -- °F
--% Chance of Precip.
Yesterday
High -- | Low -- °F
Precip. -- in
Pressure 29.91 in
Visibility 10.0 miles
Clouds Few 10000 ft
Few 15000 ft
Mostly Cloudy 22000 ft
Heat Index 81 °F
Dew Point 34 °F
Humidity 17%
Rainfall 0.00 in
Snow Depth Not available.
6:23 AM 7:37 PM
Waning Crescent, 22% visible
METAR KDEN 271853Z COR 05010KT 10SM FEW100 FEW150 BKN220 27/02 A3012 RMK AO2 SLP128 T02670017
Pressure 29.91 in
Visibility 10.0 miles
Clouds Few 10000 ft
Few 15000 ft
Mostly Cloudy 22000 ft
Heat Index 81 °F
Dew Point 34 °F
Humidity 17%
Rainfall 0.00 in
Snow Depth Not available.
6:23 AM 7:37 PM
Waning Crescent, 22% visible
METAR KDEN 271853Z COR 05010KT 10SM FEW100 FEW150 BKN220 27/02 A3012 RMK AO2 SLP128 T02670017

10-Day Weather Forecast

Almanac

Astronomy

Aug. 27, 2016 Rise Set
Actual Time
Civil Twilight
Nautical Twilight
Astronomical Twilight
Moon
Length of Visible Light
Length of Day
Tomorrow will be .
, % of the Moon is Illuminated

Today's Extremes

State Highs State Lows

Community

WunderPhotos

Upload Photos

1,935,399 photos uploaded!

WunderBlog® & News

Nearby

Air Quality

  Air Quality AQ Index Pollutant
Not available.

Snow Depth

Station Depth Elevation

Earthquake Activity

City Distance Mag. Time & Date
Minimum magnitude displayed is 2.5.

Coastal Water Temperatures

Place Temperature

Stations

Nearby Weather Stations

Station Location Temp. Windchill Dew Point Humidity Wind Precip. Elev Updated Type
                   

Watches & Warnings

There are currently no watches in effect.